createdAt,value
2023-04-23T00:08:05.099Z,97321.69
2023-04-23T00:18:07.223Z,97308.69
2023-04-23T00:28:09.487Z,97312.78
2023-04-23T00:38:11.662Z,97312.50
2023-04-23T00:48:13.860Z,97312.03
2023-04-23T00:58:16.164Z,97311.28
2023-04-23T01:08:18.989Z,97313.72
2023-04-23T01:18:21.528Z,97311.91
2023-04-23T01:28:23.889Z,97300.56
2023-04-23T01:38:28.977Z,97296.56
2023-04-23T01:48:31.360Z,97287.41
2023-04-23T01:58:33.654Z,97279.87
2023-04-23T02:08:36.315Z,97280.75
2023-04-23T02:18:38.494Z,97288.56
2023-04-23T02:28:40.890Z,97299.38
2023-04-23T02:38:45.162Z,97274.56
2023-04-23T02:48:47.523Z,97277.53
2023-04-23T02:58:49.682Z,97294.31
2023-04-23T03:08:51.849Z,97290.25
2023-04-23T03:18:53.935Z,97274.56
2023-04-23T03:28:56.115Z,97267.03
2023-04-23T03:38:58.206Z,97274.63
2023-04-23T03:49:00.377Z,97272.19
2023-04-23T03:59:02.536Z,97275.69
2023-04-23T04:09:04.718Z,97279.50
2023-04-23T04:19:07.637Z,97263.31
2023-04-23T04:29:10.899Z,97272.47
2023-04-23T04:39:15.102Z,97263.31
2023-04-23T04:49:19.918Z,97264.94
2023-04-23T04:59:22.157Z,97250.63
2023-04-23T05:09:24.466Z,97258.97
2023-04-23T05:19:26.712Z,97266.53
2023-04-23T05:29:28.942Z,97268.09
2023-04-23T05:39:31.030Z,97253.75
2023-04-23T05:49:33.272Z,97245.88
2023-04-23T05:59:35.466Z,97241.66
2023-04-23T06:09:37.622Z,97245.81
2023-04-23T06:19:39.947Z,97234.78
2023-04-23T06:29:42.004Z,97224.84
2023-04-23T06:39:44.215Z,97214.03
2023-04-23T06:49:46.216Z,97191.25
2023-04-23T06:59:48.281Z,97206.34
2023-04-23T07:09:50.706Z,97179.66
2023-04-23T07:19:52.812Z,97169.25
2023-04-23T07:29:55.222Z,97180.84
2023-04-23T07:39:57.335Z,97158.81
2023-04-23T07:49:59.492Z,97153.44
2023-04-23T08:00:01.745Z,97145.66
2023-04-23T08:10:06.544Z,97134.06
2023-04-23T08:20:09.620Z,97132.38
2023-04-23T08:30:12.046Z,97118.44
2023-04-23T08:40:14.420Z,97106.09
2023-04-23T08:50:18.580Z,97101.91
2023-04-23T09:00:23.655Z,97088.53
2023-04-23T09:10:26.215Z,97086.75
2023-04-23T09:20:28.536Z,97075.78
2023-04-23T09:30:31.364Z,97056.44
2023-04-23T09:40:33.816Z,97043.31
2023-04-23T09:50:38.728Z,97036.94
2023-04-23T10:00:41.535Z,97025.28
2023-04-23T10:10:57.605Z,97006.09
2023-04-23T10:21:06.351Z,96983.81
2023-04-23T10:31:09.634Z,96966.91
2023-04-23T10:41:12.653Z,96944.44
2023-04-23T11:01:24.630Z,96913.56
2023-04-23T11:11:40.571Z,96897.34
2023-04-23T11:21:59.317Z,96874.03
2023-04-23T11:32:03.868Z,96878.41
2023-04-23T11:42:10.455Z,96845.31
2023-04-23T11:52:13.526Z,96844.38
2023-04-23T12:02:16.940Z,96838.87
2023-04-23T12:12:19.773Z,96826.59
2023-04-23T12:22:27.180Z,96834.59
2023-04-23T12:32:29.485Z,96810.53
2023-04-23T12:42:31.897Z,96808.44
2023-04-23T12:52:34.182Z,96808.31
2023-04-23T13:02:36.521Z,96795.56
2023-04-23T13:12:39.522Z,96792.75
2023-04-23T13:22:41.839Z,96784.81
2023-04-23T13:32:44.249Z,96800.72
2023-04-23T13:42:48.349Z,96765.97
2023-04-23T13:52:50.920Z,96766.06
2023-04-23T14:02:53.175Z,96742.47
2023-04-23T14:12:56.202Z,96745.78
2023-04-23T14:23:02.938Z,96730.94
2023-04-23T14:33:05.519Z,96742.34
2023-04-23T14:43:15.096Z,96739.41
2023-04-23T14:53:18.594Z,96737.59
2023-04-23T15:03:21.535Z,96751.69
2023-04-23T15:13:24.324Z,96755.63
2023-04-23T15:23:26.990Z,96733.41
2023-04-23T15:33:29.780Z,96727.53
2023-04-23T15:43:32.068Z,96722.31
2023-04-23T15:53:34.375Z,96732.16
2023-04-23T16:03:36.964Z,96744.69
2023-04-23T16:13:40.167Z,96739.91
2023-04-23T16:23:42.587Z,96747.37
2023-04-23T16:33:44.896Z,96746.72
2023-04-23T16:43:47.750Z,96746.66
2023-04-23T16:53:50.366Z,96755.66
2023-04-23T17:03:53.378Z,96847.72
2023-04-23T17:13:57.174Z,96859.13
2023-04-23T17:24:00.236Z,96891.53
2023-04-23T17:34:02.585Z,96883.47
2023-04-23T17:44:05.071Z,96867.72
2023-04-23T17:54:07.639Z,96866.25
2023-04-23T18:04:10.440Z,96883.37
2023-04-23T18:14:12.804Z,96890.00
2023-04-23T18:24:15.524Z,96875.06
2023-04-23T18:34:19.478Z,96885.53
2023-04-23T18:44:22.412Z,96935.81
2023-04-23T18:54:26.620Z,96957.50
2023-04-23T19:04:29.743Z,96927.69
2023-04-23T19:14:32.507Z,96932.41
2023-04-23T19:24:34.975Z,96932.41
2023-04-23T19:34:37.459Z,96931.19
2023-04-23T19:44:39.926Z,96930.88
2023-04-23T19:54:43.894Z,96928.75
2023-04-23T20:04:46.308Z,96943.88
2023-04-23T20:14:48.718Z,96946.63
2023-04-23T20:24:51.188Z,96960.31
2023-04-23T20:34:53.782Z,97004.91
2023-04-23T20:44:56.191Z,96982.69
2023-04-23T20:54:58.544Z,96996.63
2023-04-23T21:05:01.046Z,96993.16
2023-04-23T21:15:03.425Z,96968.09
2023-04-23T21:25:06.375Z,96961.56
2023-04-23T21:35:08.906Z,96949.63
2023-04-23T21:45:11.558Z,96949.28
2023-04-23T21:55:14.029Z,96941.31
2023-04-23T22:05:21.640Z,96942.34
2023-04-23T22:15:23.726Z,96941.72
2023-04-23T22:25:25.822Z,96924.75
2023-04-23T22:35:28.141Z,96918.50
2023-04-23T22:45:30.720Z,96914.78
2023-04-23T22:55:32.991Z,96927.31
2023-04-23T23:05:35.264Z,96918.97
2023-04-23T23:15:37.875Z,96914.41
2023-04-23T23:25:40.419Z,96891.28
2023-04-23T23:35:43.776Z,96885.56
2023-04-23T23:45:46.168Z,96886.69
2023-04-23T23:55:48.545Z,96890.97
